Gordon Heights, New York
Current Conditions -  °F | °C
As of 5:26 AM on Thursday 23 Oct 2014 (Local Time) from KHWV Reporting Station
Light Rain Light Rain  
Wind Chill: 11°   Ceiling: 1700
Heat Index: 11°   Visibility: 9mi
Dew Point:   Wind: 14mph
Humidity: 89%   Direction: 350°N
Pressure: 29.64"   Gusts: 22mph
Location:  40.8228°N, 72.9822°W
Report Text: KHWV 230926Z AUTO 35012G19KT 9SM -RA BKN017 BKN023 OVC060 11/09 A2964 RMK AO2 P0006 T01060089 TSNO $
Loading
Personal Weather Stations






























Interactive Weather Map
Tropical Storm Tracking
New forecast layout! Learn more

10-Day Weather Forecast

Advertisements
Track Severe Weather on mobile